createdAt,value
2017-06-08T00:00:13.175Z,1007.9
2017-06-08T00:01:13.163Z,1007.9
2017-06-08T00:02:13.148Z,1007.9
2017-06-08T00:03:13.134Z,1007.92
2017-06-08T00:04:13.120Z,1007.94
2017-06-08T00:05:13.142Z,1007.93
2017-06-08T00:06:13.093Z,1007.99
2017-06-08T00:07:13.080Z,1007.99
2017-06-08T00:08:13.068Z,1007.96
2017-06-08T00:09:13.054Z,1008
2017-06-08T00:10:13.038Z,1007.99
2017-06-08T00:11:13.024Z,1008.03
2017-06-08T00:12:13.012Z,1008.03
2017-06-08T00:13:12.997Z,1008.04
2017-06-08T00:14:12.983Z,1008.05
2017-06-08T00:15:12.969Z,1008.04
2017-06-08T00:16:12.989Z,1008.05
2017-06-08T00:17:12.943Z,1008.08
2017-06-08T00:18:12.928Z,1008.02
2017-06-08T00:19:12.914Z,1008.04
2017-06-08T00:20:12.902Z,1008.05
2017-06-08T00:21:12.888Z,1008.04
2017-06-08T00:22:12.874Z,1008.06
2017-06-08T00:23:12.860Z,1008.05
2017-06-08T00:24:12.846Z,1008.07
2017-06-08T00:25:12.832Z,1008.04
2017-06-08T00:26:12.821Z,1008.02
2017-06-08T00:27:12.806Z,1007.98
2017-06-08T00:28:12.790Z,1008.01
2017-06-08T00:29:12.775Z,1008
2017-06-08T00:30:12.762Z,1007.98
2017-06-08T00:31:12.748Z,1007.98
2017-06-08T00:32:12.734Z,1008.01
2017-06-08T00:33:12.721Z,1007.99
2017-06-08T00:34:12.707Z,1007.95
2017-06-08T00:35:12.694Z,1007.96
2017-06-08T00:36:12.682Z,1007.96
2017-06-08T00:37:12.667Z,1007.93
2017-06-08T00:38:12.653Z,1007.93
2017-06-08T00:39:12.639Z,1007.92
2017-06-08T00:40:12.625Z,1007.96
2017-06-08T00:41:12.613Z,1007.96
2017-06-08T00:42:12.597Z,1007.98
2017-06-08T00:43:12.583Z,1007.99
2017-06-08T00:44:12.570Z,1007.97
2017-06-08T00:45:12.556Z,1007.97
2017-06-08T00:46:12.544Z,1007.97
2017-06-08T00:47:12.529Z,1007.96
2017-06-08T00:48:12.514Z,1007.93
2017-06-08T00:49:12.502Z,1007.93
2017-06-08T00:50:12.488Z,1007.94
2017-06-08T00:51:12.474Z,1007.93
2017-06-08T00:52:12.460Z,1007.96
2017-06-08T00:53:12.449Z,1007.96
2017-06-08T00:54:12.433Z,1007.97
2017-06-08T00:55:12.418Z,1007.93
2017-06-08T00:56:12.404Z,1007.92
2017-06-08T00:57:12.392Z,1007.93
2017-06-08T00:58:12.376Z,1007.93
2017-06-08T00:59:12.363Z,1007.9
2017-06-08T01:00:12.350Z,1007.83
2017-06-08T01:01:12.543Z,1007.87
2017-06-08T01:02:12.322Z,1007.89
2017-06-08T01:03:12.309Z,1007.89
2017-06-08T01:04:12.297Z,1007.88
2017-06-08T01:05:12.281Z,1007.92
2017-06-08T01:06:12.267Z,1007.9
2017-06-08T01:07:12.253Z,1007.88
2017-06-08T01:08:12.240Z,1007.9
2017-06-08T01:09:12.227Z,1007.91
2017-06-08T01:10:12.213Z,1007.9
2017-06-08T01:11:12.198Z,1007.9
2017-06-08T01:12:12.184Z,1007.9
2017-06-08T01:13:12.170Z,1007.85
2017-06-08T01:14:12.156Z,1007.89
2017-06-08T01:15:12.144Z,1007.91
2017-06-08T01:16:12.130Z,1007.91
2017-06-08T01:17:12.147Z,1007.88
2017-06-08T01:18:12.101Z,1007.9
2017-06-08T01:19:12.088Z,1007.9
2017-06-08T01:20:12.072Z,1007.92
2017-06-08T01:21:12.059Z,1007.92
2017-06-08T01:22:12.046Z,1007.93
2017-06-08T01:23:12.032Z,1007.94
2017-06-08T01:24:12.022Z,1007.93
2017-06-08T01:25:12.005Z,1007.92
2017-06-08T01:26:11.991Z,1007.87
2017-06-08T01:27:11.978Z,1007.95
2017-06-08T01:28:11.963Z,1007.99
2017-06-08T01:29:11.950Z,1007.91
2017-06-08T01:30:11.936Z,1007.92
2017-06-08T01:31:11.920Z,1007.93
2017-06-08T01:32:11.911Z,1007.99
2017-06-08T01:33:11.893Z,1007.93
2017-06-08T01:34:11.880Z,1007.93
2017-06-08T01:35:11.866Z,1007.89
2017-06-08T01:36:11.851Z,1007.93
2017-06-08T01:37:11.838Z,1007.93
2017-06-08T01:38:11.825Z,1007.96
2017-06-08T01:39:11.810Z,1007.97
2017-06-08T01:40:11.796Z,1007.94
2017-06-08T01:41:11.783Z,1007.96
2017-06-08T01:42:11.767Z,1007.92
2017-06-08T01:43:11.756Z,1007.98
2017-06-08T01:44:11.743Z,1007.93
2017-06-08T01:45:11.726Z,1007.93
2017-06-08T01:46:11.714Z,1007.97
2017-06-08T01:47:11.701Z,1007.95
2017-06-08T01:48:11.686Z,1007.93
2017-06-08T01:49:11.672Z,1007.92
2017-06-08T01:50:11.658Z,1007.92
2017-06-08T01:51:11.644Z,1007.95
2017-06-08T01:52:11.630Z,1008
2017-06-08T01:53:11.616Z,1007.95
2017-06-08T01:54:11.602Z,1007.99
2017-06-08T01:55:11.588Z,1007.94
2017-06-08T01:56:11.574Z,1007.95
2017-06-08T01:57:11.560Z,1007.92
2017-06-08T01:58:11.547Z,1007.97
2017-06-08T01:59:11.534Z,1007.97
2017-06-08T02:00:11.518Z,1007.97
2017-06-08T02:01:11.526Z,1007.95
2017-06-08T02:02:11.492Z,1007.97
2017-06-08T02:03:11.480Z,1007.97
2017-06-08T02:04:11.464Z,1007.95
2017-06-08T02:05:11.452Z,1007.98
2017-06-08T02:06:11.472Z,1007.99
2017-06-08T02:07:11.422Z,1007.99
2017-06-08T02:08:11.409Z,1008
2017-06-08T02:09:11.396Z,1007.99
2017-06-08T02:10:11.382Z,1007.99
2017-06-08T02:11:11.367Z,1007.99
2017-06-08T02:12:11.354Z,1007.96
2017-06-08T02:13:11.342Z,1007.97
2017-06-08T02:14:11.329Z,1008.02
2017-06-08T02:15:11.314Z,1007.98
2017-06-08T02:16:11.338Z,1008.05
2017-06-08T02:17:11.287Z,1008
2017-06-08T02:18:11.274Z,1007.97
2017-06-08T02:19:11.259Z,1008
2017-06-08T02:20:11.244Z,1008
2017-06-08T02:21:11.231Z,1007.98
2017-06-08T02:22:11.219Z,1008
2017-06-08T02:23:11.204Z,1008.03
2017-06-08T02:24:11.190Z,1007.97
2017-06-08T02:25:11.177Z,1008
2017-06-08T02:26:11.164Z,1008.01
2017-06-08T02:27:11.149Z,1008.04
2017-06-08T02:28:11.136Z,1008.06
2017-06-08T02:29:11.121Z,1008.07
2017-06-08T02:30:11.108Z,1008.06
2017-06-08T02:31:11.097Z,1008.02
2017-06-08T02:32:11.081Z,1008.07
2017-06-08T02:33:11.066Z,1008.08
2017-06-08T02:34:11.054Z,1008.06
2017-06-08T02:35:11.041Z,1008.04
2017-06-08T02:36:11.027Z,1008.01
2017-06-08T02:37:11.015Z,1008.01
2017-06-08T02:38:11.000Z,1008.03
2017-06-08T02:39:10.988Z,1008
2017-06-08T02:40:10.973Z,1008
2017-06-08T02:41:10.958Z,1008.02
2017-06-08T02:42:10.948Z,1008.06
2017-06-08T02:43:10.934Z,1008.04
2017-06-08T02:44:10.920Z,1008.04
2017-06-08T02:45:10.906Z,1008.01
2017-06-08T02:46:10.900Z,1008.03
2017-06-08T02:47:10.881Z,1008.01
2017-06-08T02:48:10.865Z,1008.04
2017-06-08T02:49:10.851Z,1008.02
2017-06-08T02:50:10.838Z,1008.05
2017-06-08T02:51:10.823Z,1008.03
2017-06-08T02:52:10.809Z,1008.03
2017-06-08T02:53:10.797Z,1008.04
2017-06-08T02:54:10.788Z,1008.06
2017-06-08T02:55:10.769Z,1008.01
2017-06-08T02:56:10.758Z,1008.06
2017-06-08T02:57:10.743Z,1008.04
2017-06-08T02:58:10.729Z,1008.03
2017-06-08T02:59:10.717Z,1008.05
2017-06-08T03:00:10.703Z,1008.06
2017-06-08T03:01:10.914Z,1008.06
2017-06-08T03:02:10.676Z,1008.08
2017-06-08T03:03:10.661Z,1008.03
2017-06-08T03:04:10.648Z,1008.1
2017-06-08T03:05:10.634Z,1008.04
2017-06-08T03:06:10.623Z,1008.1
2017-06-08T03:07:10.608Z,1008.09
2017-06-08T03:08:10.596Z,1008.11
2017-06-08T03:09:10.579Z,1008.15
2017-06-08T03:10:10.566Z,1008.17
2017-06-08T03:11:10.556Z,1008.18
2017-06-08T03:12:10.541Z,1008.13
2017-06-08T03:13:10.527Z,1008.14
2017-06-08T03:14:10.514Z,1008.15
2017-06-08T03:15:10.499Z,1008.21
2017-06-08T03:16:10.489Z,1008.21
2017-06-08T03:17:10.474Z,1008.19
2017-06-08T03:18:10.461Z,1008.28
2017-06-08T03:19:10.446Z,1008.22
2017-06-08T03:20:10.431Z,1008.19
2017-06-08T03:21:10.418Z,1008.25
2017-06-08T03:22:10.407Z,1008.23
2017-06-08T03:23:10.393Z,1008.26
2017-06-08T03:24:10.378Z,1008.24
2017-06-08T03:25:10.369Z,1008.33
2017-06-08T03:26:10.352Z,1008.32
2017-06-08T03:27:10.339Z,1008.33
2017-06-08T03:28:10.325Z,1008.34
2017-06-08T03:29:10.313Z,1008.33
2017-06-08T03:30:10.298Z,1008.31
2017-06-08T03:31:10.285Z,1008.39
2017-06-08T03:32:10.324Z,1008.26
2017-06-08T03:33:10.256Z,1008.3
2017-06-08T03:34:10.245Z,1008.3
2017-06-08T03:35:10.229Z,1008.38
2017-06-08T03:36:10.217Z,1008.31
2017-06-08T03:37:10.203Z,1008.36
2017-06-08T03:38:10.192Z,1008.34
2017-06-08T03:39:10.176Z,1008.35
2017-06-08T03:40:10.162Z,1008.32
2017-06-08T03:41:10.148Z,1008.3
2017-06-08T03:42:10.184Z,1008.32
2017-06-08T03:43:10.120Z,1008.31
2017-06-08T03:44:10.107Z,1008.26
2017-06-08T03:45:10.096Z,1008.28
2017-06-08T03:46:10.080Z,1008.24
2017-06-08T03:47:10.066Z,1008.22
2017-06-08T03:48:10.056Z,1008.25
2017-06-08T03:49:10.041Z,1008.25
2017-06-08T03:50:10.025Z,1008.2
2017-06-08T03:51:10.013Z,1008.18
2017-06-08T03:52:10.001Z,1008.26
2017-06-08T03:53:09.985Z,1008.26
2017-06-08T03:54:09.974Z,1008.2
2017-06-08T03:55:09.959Z,1008.26
2017-06-08T03:56:09.945Z,1008.22
2017-06-08T03:57:09.932Z,1008.21
2017-06-08T03:58:09.919Z,1008.2
2017-06-08T03:59:09.904Z,1008.25
2017-06-08T04:00:09.890Z,1008.28
2017-06-08T04:01:09.877Z,1008.22
2017-06-08T04:02:09.864Z,1008.23
2017-06-08T04:03:09.851Z,1008.24
2017-06-08T04:04:09.837Z,1008.22
2017-06-08T04:05:09.823Z,1008.26
2017-06-08T04:06:09.811Z,1008.29
2017-06-08T04:07:09.796Z,1008.2
2017-06-08T04:08:09.783Z,1008.27
2017-06-08T04:09:09.769Z,1008.24
2017-06-08T04:10:09.759Z,1008.24
2017-06-08T04:11:09.743Z,1008.26
2017-06-08T04:12:09.730Z,1008.21
2017-06-08T04:13:09.719Z,1008.23
2017-06-08T04:14:09.743Z,1008.2
2017-06-08T04:15:09.691Z,1008.2
2017-06-08T04:16:09.679Z,1008.23
2017-06-08T04:17:09.662Z,1008.2
2017-06-08T04:18:09.650Z,1008.15
2017-06-08T04:19:09.637Z,1008.16
2017-06-08T04:20:09.622Z,1008.14
2017-06-08T04:21:09.611Z,1008.15
2017-06-08T04:22:09.596Z,1008.12
2017-06-08T04:23:09.583Z,1008.12
2017-06-08T04:24:09.574Z,1008.11
2017-06-08T04:25:09.557Z,1008.13
2017-06-08T04:26:09.544Z,1008.11
2017-06-08T04:27:09.529Z,1008.14
2017-06-08T04:28:09.518Z,1008.18
2017-06-08T04:29:09.506Z,1008.13
2017-06-08T04:30:09.489Z,1008.12
2017-06-08T04:31:09.477Z,1008.13
2017-06-08T04:32:09.465Z,1008.1
2017-06-08T04:33:09.450Z,1008.1
2017-06-08T04:34:09.437Z,1008.12
2017-06-08T04:35:09.427Z,1008.09
2017-06-08T04:36:09.412Z,1008.08
2017-06-08T04:37:09.397Z,1008.12
2017-06-08T04:38:09.386Z,1008.11
2017-06-08T04:39:09.372Z,1008.08
2017-06-08T04:40:09.361Z,1008.07
2017-06-08T04:41:09.344Z,1008.09
2017-06-08T04:42:09.333Z,1008.07
2017-06-08T04:43:09.319Z,1008.1
2017-06-08T04:44:09.306Z,1008.14
2017-06-08T04:45:09.292Z,1008.09
2017-06-08T04:46:09.281Z,1008.13
2017-06-08T04:47:09.267Z,1008.15
2017-06-08T04:48:09.268Z,1008.17
2017-06-08T04:49:09.240Z,1008.17
2017-06-08T04:50:09.226Z,1008.17
2017-06-08T04:51:09.215Z,1008.2
2017-06-08T04:52:09.200Z,1008.23
2017-06-08T04:53:09.237Z,1008.23
2017-06-08T04:54:09.173Z,1008.24
2017-06-08T04:55:09.160Z,1008.26
2017-06-08T04:56:09.154Z,1008.25
2017-06-08T04:57:09.137Z,1008.24
2017-06-08T04:58:09.122Z,1008.26
2017-06-08T04:59:09.107Z,1008.23
2017-06-08T05:00:09.111Z,1008.27
2017-06-08T05:01:09.286Z,1008.27
2017-06-08T05:02:09.086Z,1008.27
2017-06-08T05:03:09.073Z,1008.26
2017-06-08T05:04:09.063Z,1008.31
2017-06-08T05:05:09.034Z,1008.28
2017-06-08T05:06:09.015Z,1008.28
2017-06-08T05:07:09.022Z,1008.32
2017-06-08T05:08:08.995Z,1008.31
2017-06-08T05:09:08.979Z,1008.3
2017-06-08T05:10:08.965Z,1008.29
2017-06-08T05:11:08.953Z,1008.3
2017-06-08T05:12:08.941Z,1008.32
2017-06-08T05:13:08.926Z,1008.32
2017-06-08T05:14:08.912Z,1008.3
2017-06-08T05:15:08.901Z,1008.31
2017-06-08T05:16:08.886Z,1008.34
2017-06-08T05:17:08.873Z,1008.34
2017-06-08T05:18:08.861Z,1008.33
2017-06-08T05:19:08.848Z,1008.33
2017-06-08T05:20:08.835Z,1008.32
2017-06-08T05:21:08.822Z,1008.33
2017-06-08T05:22:08.808Z,1008.33
2017-06-08T05:23:08.796Z,1008.39
2017-06-08T05:24:08.785Z,1008.4
2017-06-08T05:25:08.770Z,1008.36
2017-06-08T05:26:08.758Z,1008.39
2017-06-08T05:27:08.747Z,1008.37
2017-06-08T05:28:08.732Z,1008.38
2017-06-08T05:29:08.719Z,1008.41
2017-06-08T05:30:08.707Z,1008.43
2017-06-08T05:31:08.693Z,1008.39
2017-06-08T05:32:08.679Z,1008.42
2017-06-08T05:33:08.667Z,1008.43
2017-06-08T05:34:08.655Z,1008.42
2017-06-08T05:35:08.643Z,1008.4
2017-06-08T05:36:08.628Z,1008.45
2017-06-08T05:37:08.617Z,1008.41
2017-06-08T05:38:08.602Z,1008.37
2017-06-08T05:39:08.589Z,1008.36
2017-06-08T05:40:08.577Z,1008.37
2017-06-08T05:41:08.565Z,1008.31
2017-06-08T05:42:08.554Z,1008.31
2017-06-08T05:43:08.537Z,1008.3
2017-06-08T05:44:08.527Z,1008.23
2017-06-08T05:45:08.515Z,1008.18
2017-06-08T05:46:08.503Z,1008.16
2017-06-08T05:47:08.488Z,1008.16
2017-06-08T05:48:08.475Z,1008.21
2017-06-08T05:49:08.460Z,1008.2
2017-06-08T05:50:08.449Z,1008.23
2017-06-08T05:51:08.435Z,1008.26
2017-06-08T05:52:08.424Z,1008.17
2017-06-08T05:53:08.461Z,1008.15
2017-06-08T05:54:08.419Z,1008.17
2017-06-08T05:55:08.386Z,1008.18
2017-06-08T05:56:08.372Z,1008.18
2017-06-08T05:57:08.362Z,1008.15
2017-06-08T05:58:08.347Z,1008.14
2017-06-08T05:59:08.335Z,1008.19
2017-06-08T06:00:08.324Z,1008.18
2017-06-08T06:01:08.310Z,1008.21
2017-06-08T06:02:08.299Z,1008.18
2017-06-08T06:03:08.286Z,1008.21
2017-06-08T06:04:08.274Z,1008.2
2017-06-08T06:05:08.261Z,1008.17
2017-06-08T06:06:08.247Z,1008.25
2017-06-08T06:07:08.237Z,1008.18
2017-06-08T06:08:08.225Z,1008.2
2017-06-08T06:09:08.214Z,1008.18
2017-06-08T06:10:08.200Z,1008.16
2017-06-08T06:11:08.189Z,1008.09
2017-06-08T06:12:08.176Z,1008.13
2017-06-08T06:13:08.164Z,1008.08
2017-06-08T06:14:08.152Z,1008.1
2017-06-08T06:15:08.140Z,1008.03
2017-06-08T06:16:08.127Z,1008.07
2017-06-08T06:17:08.117Z,1008.07
2017-06-08T06:18:08.104Z,1008.13
2017-06-08T06:19:08.091Z,1008.11
2017-06-08T06:20:08.079Z,1008.11
2017-06-08T06:21:08.068Z,1008.11
2017-06-08T06:22:08.055Z,1008.13
2017-06-08T06:23:08.041Z,1008.13
2017-06-08T06:24:08.029Z,1008.15
2017-06-08T06:25:08.018Z,1008.18
2017-06-08T06:26:08.058Z,1008.16
2017-06-08T06:27:07.994Z,1008.19
2017-06-08T06:28:07.984Z,1008.15
2017-06-08T06:29:07.973Z,1008.14
2017-06-08T06:30:07.961Z,1008.12
2017-06-08T06:31:07.947Z,1008.09
2017-06-08T06:32:07.936Z,1008.12
2017-06-08T06:33:07.925Z,1008.1
2017-06-08T06:34:07.912Z,1008.12
2017-06-08T06:35:07.899Z,1008.1
2017-06-08T06:36:07.887Z,1008.06
2017-06-08T06:37:07.878Z,1008.03
2017-06-08T06:38:07.864Z,1008.02
2017-06-08T06:39:07.853Z,1008.01
2017-06-08T06:40:07.840Z,1008.02
2017-06-08T06:41:07.828Z,1008
2017-06-08T06:42:07.822Z,1007.95
2017-06-08T06:43:07.808Z,1008.01
2017-06-08T06:44:07.797Z,1008.02
2017-06-08T06:45:07.785Z,1008
2017-06-08T06:46:07.772Z,1008.02
2017-06-08T06:47:07.762Z,1008.02
2017-06-08T06:48:07.749Z,1007.97
2017-06-08T06:49:07.738Z,1007.96
2017-06-08T06:50:07.726Z,1007.91
2017-06-08T06:51:07.717Z,1007.94
2017-06-08T06:52:07.706Z,1007.92
2017-06-08T06:53:07.691Z,1007.91
2017-06-08T06:54:07.683Z,1007.92
2017-06-08T06:55:07.669Z,1007.95
2017-06-08T06:56:07.662Z,1007.96
2017-06-08T06:57:07.648Z,1007.97
2017-06-08T06:58:07.634Z,1007.98
2017-06-08T06:59:07.625Z,1007.99
2017-06-08T07:00:07.611Z,1007.94
2017-06-08T07:01:07.602Z,1007.95
2017-06-08T07:02:07.792Z,1007.94
2017-06-08T07:03:07.578Z,1007.9
2017-06-08T07:04:07.567Z,1007.9
2017-06-08T07:05:07.556Z,1007.94
2017-06-08T07:06:07.545Z,1007.95
2017-06-08T07:07:07.537Z,1007.97
2017-06-08T07:08:07.524Z,1007.91
2017-06-08T07:09:07.513Z,1007.88
2017-06-08T07:10:07.502Z,1007.91
2017-06-08T07:11:07.491Z,1007.89
2017-06-08T07:12:07.479Z,1007.92
2017-06-08T07:13:07.468Z,1007.89
2017-06-08T07:14:07.457Z,1007.9
2017-06-08T07:15:07.448Z,1007.85
2017-06-08T07:16:07.438Z,1007.89
2017-06-08T07:17:07.427Z,1007.83
2017-06-08T07:18:07.415Z,1007.82
2017-06-08T07:19:07.406Z,1007.83
2017-06-08T07:20:07.397Z,1007.85
2017-06-08T07:21:07.388Z,1007.87
2017-06-08T07:22:07.377Z,1007.89
2017-06-08T07:23:07.368Z,1007.95
2017-06-08T07:24:07.387Z,1007.92
2017-06-08T07:25:07.347Z,1007.94
2017-06-08T07:26:07.336Z,1007.95
2017-06-08T07:27:07.325Z,1007.92
2017-06-08T07:28:07.315Z,1007.95
2017-06-08T07:29:07.307Z,1007.94
2017-06-08T07:30:07.296Z,1007.96
2017-06-08T07:31:07.338Z,1007.94
2017-06-08T07:32:07.275Z,1007.87
2017-06-08T07:33:07.267Z,1007.88
2017-06-08T07:34:07.257Z,1007.88
2017-06-08T07:35:07.248Z,1007.8
2017-06-08T07:36:07.234Z,1007.82
2017-06-08T07:37:07.223Z,1007.77
2017-06-08T07:38:07.214Z,1007.79
2017-06-08T07:39:07.205Z,1007.86
2017-06-08T07:40:07.197Z,1007.75
2017-06-08T07:41:07.185Z,1007.82
2017-06-08T07:42:07.176Z,1007.76
2017-06-08T07:43:07.165Z,1007.79
2017-06-08T07:44:07.155Z,1007.78
2017-06-08T07:45:07.145Z,1007.77
2017-06-08T07:46:07.135Z,1007.82
2017-06-08T07:47:07.125Z,1007.84
2017-06-08T07:48:07.114Z,1007.81
2017-06-08T07:49:07.105Z,1007.85
2017-06-08T07:50:07.097Z,1007.83
2017-06-08T07:51:07.133Z,1007.86
2017-06-08T07:52:07.075Z,1007.84
2017-06-08T07:53:07.065Z,1007.83
2017-06-08T07:54:07.054Z,1007.83
2017-06-08T07:55:07.047Z,1007.79
2017-06-08T07:56:07.034Z,1007.82
2017-06-08T07:57:07.024Z,1007.86
2017-06-08T07:58:07.015Z,1007.8
2017-06-08T07:59:07.005Z,1007.82
2017-06-08T08:00:06.994Z,1007.83
2017-06-08T08:01:06.985Z,1007.8
2017-06-08T08:02:06.976Z,1007.85
2017-06-08T08:03:06.968Z,1007.91
2017-06-08T08:04:06.956Z,1007.9
2017-06-08T08:05:06.948Z,1007.87
2017-06-08T08:06:06.937Z,1007.81
2017-06-08T08:07:06.927Z,1007.81
2017-06-08T08:08:06.921Z,1007.86
2017-06-08T08:09:06.909Z,1007.79
2017-06-08T08:10:06.898Z,1007.79
2017-06-08T08:11:06.891Z,1007.78
2017-06-08T08:12:06.882Z,1007.74
2017-06-08T08:13:06.871Z,1007.72
2017-06-08T08:14:06.881Z,1007.7
2017-06-08T08:15:06.854Z,1007.74
2017-06-08T08:16:06.845Z,1007.71
2017-06-08T08:17:06.836Z,1007.83
2017-06-08T08:18:06.834Z,1007.77
2017-06-08T08:19:06.820Z,1007.78
2017-06-08T08:20:06.808Z,1007.77
2017-06-08T08:21:06.799Z,1007.76
2017-06-08T08:22:06.791Z,1007.8
2017-06-08T08:23:06.781Z,1007.75
2017-06-08T08:24:06.771Z,1007.77
2017-06-08T08:25:06.763Z,1007.74
2017-06-08T08:26:06.754Z,1007.74
2017-06-08T08:27:06.744Z,1007.76
2017-06-08T08:28:06.735Z,1007.8
2017-06-08T08:29:06.729Z,1007.74
2017-06-08T08:30:06.720Z,1007.73
2017-06-08T08:31:06.710Z,1007.78
2017-06-08T08:32:06.704Z,1007.76
2017-06-08T08:33:06.693Z,1007.75
2017-06-08T08:34:06.684Z,1007.84
2017-06-08T08:35:06.677Z,1007.77
2017-06-08T08:36:06.669Z,1007.78
2017-06-08T08:37:06.661Z,1007.82
2017-06-08T08:38:06.651Z,1007.83
2017-06-08T08:39:06.645Z,1007.77
2017-06-08T08:40:06.634Z,1007.78
2017-06-08T08:41:06.627Z,1007.74
2017-06-08T08:42:06.618Z,1007.77
2017-06-08T08:43:06.616Z,1007.78
2017-06-08T08:44:06.603Z,1007.85
2017-06-08T08:45:06.596Z,1007.84
2017-06-08T08:46:06.587Z,1007.81
2017-06-08T08:47:06.580Z,1007.87
2017-06-08T08:48:06.571Z,1007.82
2017-06-08T08:49:06.567Z,1007.82
2017-06-08T08:50:06.555Z,1007.83
2017-06-08T08:51:06.555Z,1007.86
2017-06-08T08:52:06.542Z,1007.91
2017-06-08T08:53:06.533Z,1007.86
2017-06-08T08:54:06.523Z,1007.84
2017-06-08T08:55:06.517Z,1007.85
2017-06-08T08:56:06.509Z,1007.9
2017-06-08T08:57:06.505Z,1007.88
2017-06-08T08:58:06.495Z,1007.84
2017-06-08T08:59:06.487Z,1007.81
2017-06-08T09:00:06.479Z,1007.75
2017-06-08T09:01:06.473Z,1007.79
2017-06-08T09:02:06.669Z,1007.69
2017-06-08T09:03:06.460Z,1007.72
2017-06-08T09:04:06.452Z,1007.66
2017-06-08T09:05:06.446Z,1007.68
2017-06-08T09:06:06.440Z,1007.71
2017-06-08T09:07:06.431Z,1007.7
2017-06-08T09:08:06.427Z,1007.69
2017-06-08T09:09:06.419Z,1007.62
2017-06-08T09:10:06.415Z,1007.6
2017-06-08T09:11:06.404Z,1007.65
2017-06-08T09:12:06.397Z,1007.69
2017-06-08T09:13:06.395Z,1007.86
2017-06-08T09:14:06.385Z,1007.64
2017-06-08T09:15:06.378Z,1007.72
2017-06-08T09:16:06.371Z,1007.8
2017-06-08T09:17:06.366Z,1007.73
2017-06-08T09:18:06.364Z,1007.81
2017-06-08T09:19:06.351Z,1007.89
2017-06-08T09:20:06.348Z,1007.85
2017-06-08T09:21:06.340Z,1007.86
2017-06-08T09:22:06.338Z,1007.85
2017-06-08T09:23:06.329Z,1007.95
2017-06-08T09:24:06.324Z,1007.96
2017-06-08T09:25:06.319Z,1007.98
2017-06-08T09:26:06.313Z,1007.89
2017-06-08T09:27:06.310Z,1007.69
2017-06-08T09:28:06.305Z,1007.8
2017-06-08T09:29:06.299Z,1007.68
2017-06-08T09:30:06.339Z,1007.58
2017-06-08T09:31:06.291Z,1007.76
2017-06-08T09:32:06.286Z,1007.73
2017-06-08T09:33:06.284Z,1007.55
2017-06-08T09:34:06.279Z,1007.73
2017-06-08T09:35:06.273Z,1007.69
2017-06-08T09:36:06.268Z,1007.78
2017-06-08T09:37:06.262Z,1007.67
2017-06-08T09:38:06.266Z,1007.63
2017-06-08T09:39:06.253Z,1007.63
2017-06-08T09:40:06.249Z,1007.67
2017-06-08T09:41:06.246Z,1007.68
2017-06-08T09:42:06.243Z,1007.67
2017-06-08T09:43:06.237Z,1007.68
2017-06-08T09:44:06.232Z,1007.71
2017-06-08T09:45:06.233Z,1007.91
2017-06-08T09:46:06.233Z,1007.7
2017-06-08T09:47:06.219Z,1007.7
2017-06-08T09:48:06.216Z,1007.69
2017-06-08T09:49:06.212Z,1007.72
2017-06-08T09:50:06.208Z,1007.64
2017-06-08T09:51:06.205Z,1007.63
2017-06-08T09:52:06.204Z,1007.59
2017-06-08T09:53:06.194Z,1007.62
2017-06-08T09:54:06.188Z,1007.58
2017-06-08T09:55:06.183Z,1007.59
2017-06-08T09:56:06.179Z,1007.65
2017-06-08T09:57:06.174Z,1007.68
2017-06-08T09:58:06.170Z,1007.67
2017-06-08T09:59:06.206Z,1007.7
2017-06-08T10:00:06.160Z,1007.68
2017-06-08T10:01:06.156Z,1007.63
2017-06-08T10:02:06.150Z,1007.6
2017-06-08T10:03:06.146Z,1007.61
2017-06-08T10:04:06.142Z,1007.73
2017-06-08T10:05:06.137Z,1007.66
2017-06-08T10:06:06.132Z,1007.69
2017-06-08T10:07:06.127Z,1007.71
2017-06-08T10:08:06.123Z,1007.68
2017-06-08T10:09:06.119Z,1007.7
2017-06-08T10:10:06.113Z,1007.65
2017-06-08T10:11:06.110Z,1007.63
2017-06-08T10:12:06.104Z,1007.64
2017-06-08T10:13:06.099Z,1007.66
2017-06-08T10:14:06.095Z,1007.64
2017-06-08T10:15:06.092Z,1007.65
2017-06-08T10:16:06.085Z,1007.61
2017-06-08T10:17:06.081Z,1007.59
2017-06-08T10:18:06.077Z,1007.58
2017-06-08T10:19:06.072Z,1007.61
2017-06-08T10:20:06.066Z,1007.59
2017-06-08T10:21:06.061Z,1007.62
2017-06-08T10:22:06.057Z,1007.57
2017-06-08T10:23:06.052Z,1007.63
2017-06-08T10:24:06.044Z,1007.62
2017-06-08T10:25:06.039Z,1007.59
2017-06-08T10:26:06.034Z,1007.58
2017-06-08T10:27:06.028Z,1007.61
2017-06-08T10:28:06.024Z,1007.56
2017-06-08T10:29:06.015Z,1007.57
2017-06-08T10:30:06.010Z,1007.59
2017-06-08T10:31:06.006Z,1007.55
2017-06-08T10:32:06.001Z,1007.53
2017-06-08T10:33:05.995Z,1007.55
2017-06-08T10:34:05.987Z,1007.52
2017-06-08T10:35:05.981Z,1007.55
2017-06-08T10:36:05.976Z,1007.59
2017-06-08T10:37:05.971Z,1007.54
2017-06-08T10:38:05.966Z,1007.51
2017-06-08T10:39:05.957Z,1007.64
2017-06-08T10:40:05.951Z,1007.58
2017-06-08T10:41:05.948Z,1007.55
2017-06-08T10:42:05.947Z,1007.59
2017-06-08T10:43:05.933Z,1007.59
2017-06-08T10:44:05.926Z,1007.54
2017-06-08T10:45:05.922Z,1007.52
2017-06-08T10:46:05.915Z,1007.54
2017-06-08T10:47:05.914Z,1007.5
2017-06-08T10:48:05.903Z,1007.48
2017-06-08T10:49:05.899Z,1007.43
2017-06-08T10:50:05.892Z,1007.4
2017-06-08T10:51:05.887Z,1007.58
2017-06-08T10:52:05.884Z,1007.5
2017-06-08T10:53:05.926Z,1007.48
2017-06-08T10:54:05.870Z,1007.44
2017-06-08T10:55:05.867Z,1007.41
2017-06-08T10:56:05.861Z,1007.43
2017-06-08T10:57:05.857Z,1007.43
2017-06-08T10:58:05.854Z,1007.37
2017-06-08T10:59:05.848Z,1007.46
2017-06-08T11:00:05.842Z,1007.39
2017-06-08T11:01:05.837Z,1007.36
2017-06-08T11:02:06.038Z,1007.43
2017-06-08T11:03:05.827Z,1007.42
2017-06-08T11:04:05.824Z,1007.45
2017-06-08T11:05:05.854Z,1007.44
2017-06-08T11:06:05.813Z,1007.28
2017-06-08T11:07:05.809Z,1007.42
2017-06-08T11:08:05.806Z,1007.25
2017-06-08T11:09:05.802Z,1007.3
2017-06-08T11:10:05.798Z,1007.33
2017-06-08T11:11:05.793Z,1007.25
2017-06-08T11:12:05.789Z,1007.25
2017-06-08T11:13:05.786Z,1007.29
2017-06-08T11:14:05.782Z,1007.36
2017-06-08T11:15:05.778Z,1007.36
2017-06-08T11:16:05.826Z,1007.35
2017-06-08T11:17:05.772Z,1007.26
2017-06-08T11:18:05.768Z,1007.25
2017-06-08T11:19:05.765Z,1007.29
2017-06-08T11:20:05.760Z,1007.27
2017-06-08T11:21:05.757Z,1007.34
2017-06-08T11:22:05.755Z,1007.26
2017-06-08T11:23:05.749Z,1007.31
2017-06-08T11:24:05.748Z,1007.28
2017-06-08T11:25:05.744Z,1007.22
2017-06-08T11:26:05.740Z,1007.21
2017-06-08T11:27:05.737Z,1007.23
2017-06-08T11:28:05.733Z,1007.17
2017-06-08T11:29:05.728Z,1007.21
2017-06-08T11:30:05.725Z,1007.2
2017-06-08T11:31:05.721Z,1007.22
2017-06-08T11:32:05.718Z,1007.26
2017-06-08T11:33:05.755Z,1007.21
2017-06-08T11:34:05.711Z,1007.23
2017-06-08T11:35:05.707Z,1007.16
2017-06-08T11:36:05.704Z,1007.11
2017-06-08T11:37:05.699Z,1007.19
2017-06-08T11:38:05.696Z,1007.17
2017-06-08T11:39:05.689Z,1007.11
2017-06-08T11:40:05.687Z,1007.06
2017-06-08T11:41:05.682Z,1007.12
2017-06-08T11:42:05.680Z,1007.09
2017-06-08T11:43:05.675Z,1007.08
2017-06-08T11:44:05.672Z,1007.04
2017-06-08T11:45:05.665Z,1007.09
2017-06-08T11:46:05.663Z,1007
2017-06-08T11:47:05.658Z,1006.97
2017-06-08T11:48:05.654Z,1007
2017-06-08T11:49:05.651Z,1006.95
2017-06-08T11:50:05.647Z,1006.96
2017-06-08T11:51:05.642Z,1007.03
2017-06-08T11:52:05.637Z,1007.11
2017-06-08T11:53:05.633Z,1007
2017-06-08T11:54:05.630Z,1006.98
2017-06-08T11:55:05.627Z,1006.98
2017-06-08T11:56:05.623Z,1007.01
2017-06-08T11:57:05.620Z,1006.91
2017-06-08T11:58:05.618Z,1006.97
2017-06-08T11:59:05.613Z,1006.87
2017-06-08T12:00:05.611Z,1006.94
2017-06-08T12:01:05.608Z,1006.92
2017-06-08T12:02:05.605Z,1006.91
2017-06-08T12:03:05.604Z,1006.82
2017-06-08T12:04:05.601Z,1006.75
2017-06-08T12:05:05.597Z,1006.76
2017-06-08T12:06:05.595Z,1006.72
2017-06-08T12:07:05.593Z,1006.66
2017-06-08T12:08:05.589Z,1006.7
2017-06-08T12:09:05.584Z,1006.64